Vancouver, Canada
Current Conditions -  °F | °C
As of 1:00 PM on Friday 19 Dec 2014 (Local Time) from CYVR Reporting Station
Overcast Overcast  
Wind Chill: 43°   Ceiling: 6500
Heat Index: 48°   Visibility: 15mi
Dew Point: 45°   Wind: 12mph
Humidity: 87%   Direction: 120°ESE
Pressure: 29.9"   Gusts: NA
Location:  49.26°N, 123.11°W
Report Text: CYVR 192100Z 12010KT 15SM FEW005 SCT032 SCT055 BKN065 OVC110 09/07 A2990 RMK SF1SC2SC1SC2AC2 SLP124
Loading
Personal Weather Stations






























Interactive Weather Map New forecast layout! Learn more

10-Day Weather Forecast

Advertisements
Track Severe Weather on mobile